Koltsovo Airport


Codes: USSS/SVX
Name: Koltsovo Airport
City: Yekaterinburg
Country: Russia
Elevation: 764 ft.
Wikipedia:

Photos at Koltsovo Airport


   Photos courtesy of SpottingLog. You can add your own sightings and photos by signing up for a free trial today.



No photos found.

Weather at Koltsovo Airport


Time (UTC)DescriptionTempratureWindCloud coverageVisibilityPressureHumidity
21-Feb-2024 03:00Clear Sky-25°C2 mph, S0%10000m1032hPa84%
21-Feb-2024 06:00Scattered Clouds-22°C2 mph, SW33%10000m1033hPa86%
21-Feb-2024 09:00Broken Clouds-15°C4 mph, S65%10000m1033hPa80%
21-Feb-2024 12:00Overcast Clouds-11°C4 mph, SE98%10000m1034hPa90%
21-Feb-2024 15:00Scattered Clouds-21°C4 mph, S33%10000m1035hPa99%
21-Feb-2024 18:00Scattered Clouds-24°C2 mph, SW43%10000m1036hPa100%
21-Feb-2024 21:00Broken Clouds-24°C2 mph, SW80%10000m1036hPa100%
22-Feb-2024 00:00Broken Clouds-23°C2 mph, SW75%10000m1035hPa100%
22-Feb-2024 03:00Overcast Clouds-23°C4 mph, W92%10000m1035hPa100%
22-Feb-2024 06:00Broken Clouds-14°C7 mph, W67%10000m1035hPa89%
22-Feb-2024 09:00Overcast Clouds-9°C7 mph, W89%10000m1034hPa82%
22-Feb-2024 12:00Overcast Clouds-8°C7 mph, W95%10000m1034hPa87%
22-Feb-2024 15:00Overcast Clouds-16°C4 mph, W87%10000m1035hPa98%
22-Feb-2024 18:00Overcast Clouds-14°C7 mph, W93%10000m1035hPa95%
22-Feb-2024 21:00Overcast Clouds-13°C7 mph, W100%10000m1036hPa93%
23-Feb-2024 00:00Overcast Clouds-16°C7 mph, W86%10000m1036hPa95%
23-Feb-2024 03:00Few Clouds-16°C7 mph, W21%10000m1037hPa93%
23-Feb-2024 06:00Few Clouds-12°C9 mph, W18%10000m1037hPa86%
23-Feb-2024 09:00Few Clouds-7°C9 mph, W12%10000m1037hPa77%
23-Feb-2024 12:00Clear Sky-7°C7 mph, W10%10000m1037hPa83%
23-Feb-2024 15:00Few Clouds-13°C7 mph, W13%10000m1039hPa94%
23-Feb-2024 18:00Scattered Clouds-13°C7 mph, W48%10000m1039hPa92%
23-Feb-2024 21:00Scattered Clouds-14°C9 mph, W27%10000m1040hPa88%
24-Feb-2024 00:00Scattered Clouds-15°C9 mph, W30%10000m1040hPa86%
24-Feb-2024 03:00Clear Sky-15°C9 mph, W9%10000m1041hPa85%
24-Feb-2024 06:00Clear Sky-11°C11 mph, W9%10000m1041hPa80%
24-Feb-2024 09:00Few Clouds-6°C11 mph, W24%10000m1041hPa81%
24-Feb-2024 12:00Scattered Clouds-7°C11 mph, W36%10000m1041hPa87%
24-Feb-2024 15:00Broken Clouds-9°C11 mph, W73%10000m1042hPa90%
24-Feb-2024 18:00Broken Clouds-10°C11 mph, W75%10000m1043hPa90%
24-Feb-2024 21:00Broken Clouds-11°C11 mph, W75%10000m1043hPa91%
25-Feb-2024 00:00Broken Clouds-11°C11 mph, W63%10000m1044hPa89%
25-Feb-2024 03:00Few Clouds-11°C11 mph, W11%10000m1044hPa84%
25-Feb-2024 06:00Clear Sky-8°C11 mph, W9%10000m1044hPa78%
25-Feb-2024 09:00Clear Sky-4°C13 mph, W3%10000m1043hPa77%
25-Feb-2024 12:00Few Clouds-4°C11 mph, W14%10000m1042hPa77%
25-Feb-2024 15:00Scattered Clouds-7°C11 mph, W25%10000m1043hPa78%
25-Feb-2024 18:00Few Clouds-8°C13 mph, W16%10000m1043hPa72%
25-Feb-2024 21:00Clear Sky-9°C13 mph, W7%10000m1042hPa69%
26-Feb-2024 00:00Scattered Clouds-9°C13 mph, W29%10000m1041hPa67%